Hauptseite
METAR-TAF:

METAR-TAF

Flughäfen :

Flughafen Split

Split, Kroatien

Breite: 43-32N, Länge: 016-18E, Höhe: 19 m

Beobachtung

Neuester Wetterbericht von vor 33 Minuten, um 18:30 UTC
Wind 2 kt aus unterschiedlichen Richtungen
Temperatur 16°C
Luftfeuchtigkeit 45%
Luftdruck 1016 hPa
Sichtweite 10 km oder mehr
keine Wolken unter 1500 m und keine Kumulonimbus oder Gewitterwolken

METAR: LDSP 231830Z VRB02KT CAVOK 16/04 Q1016 TEMPO 05007KT

Zeit: 21:03 (19:03 UTC)

Prognose

Neuester Wetterbericht von vor 41 Minuten, um 18:22 UTC
Gültige Prognose vom 23 um 18 UTC bis 24 um 18 UTC
Wind 9 kt aus Nordwest
Sichtweite 10 km oder mehr
keine Wolken unter 1500 m und keine Kumulonimbus oder Gewitterwolken
Wahrscheinlichkeit 40% :
Zeitweise
vom 23 um 18 UTC bis 24 um 05 UTC
Wind 7 kt aus Nordost

TAF: LDSP 231822Z 2318/2418 32009KT CAVOK TX22/2412Z TN13/2405Z PROB40 TEMPO 2318/2405 05007KT

Wetterbeobachtungen und Prognosen von mehr als 4000 Flughäfen (METAR und TAF Bericht).

Die verfügbaren Stationen werden durch gelbe und rote Markierungen auf der Karte dargestellt.

Führen Sie die Maus auf sie, um den Namen der Station zu sehen.

Darauf klicken, um die Beobachtung von Wetterbeobachtungen und Prognosen zu sehen.

Um die Karte zu ändern : klicken Sie auf den grünen Tasten mit einem schwarzen Kreuz Zum Vergrößern, auf den grünen Button mit einem Gedankenstrich zu verkleinern, oder auf die grünen Pfeile für benachbarte Karten.


METAR-TAF: